Bow Heron — DYTN — position and weather

sailwx.info

Track history (hours):
 
Tides and Currents Weather Stations Pressure Air Temp Water Temp Dewpoint Dewpoint Depression Visibility Wind Speed Wind Dir Waves Ship Positions

Bow Heron

Last reported at 2016-Jul-09 23:23 UTC. Time now 2016-Jul-29 05:54 UTC.
Position N 26°38' W 014°48'.
Warning: this ship's position is 19 days out of date.

Length 174 m; draft 6.7 m.

Type: Ship. MMSI: 548779000.

Date/timePositionNaut miles runAvg speedWind from/ knotsBaromVisibWave heightAir tempDewpointWater temp
2016-Jul-09 23:23N 26°38' W 014°48'1416.1
2016-Jul-09 22:32N 26°48' W 014°38'1616.2
2016-Jul-09 21:33N 26°60' W 014°26'2216.1
2016-Jul-09 20:10N 27°16' W 014°08'1516.4
2016-Jul-09 19:16N 27°27' W 013°57'11216.2
2016-Jul-09 12:18N 29°08' W 013°01'1216.1
2016-Jul-09 11:33N 29°19' W 012°56'1815.7
2016-Jul-09 10:24N 29°37' W 012°52'1315.5
2016-Jul-09 09:33N 29°50' W 012°50'11015.4
2016-Jul-09 02:24N 31°39' W 012°32'28916.0
2016-Jul-08 08:18N 36°26' W 011°43'3215.7
2016-Jul-08 06:15N 36°58' W 011°37'2815.9
2016-Jul-08 04:28N 37°26' W 011°32'1516.1
2016-Jul-08 03:33N 37°40' W 011°30'1616.1
2016-Jul-08 02:33N 37°56' W 011°27'1816.1
2016-Jul-08 01:27N 38°14' W 011°26'1715.9
2016-Jul-08 00:21N 38°31' W 011°21'1316.2
2016-Jul-07 23:33N 38°44' W 011°19'2216.1
2016-Jul-07 22:11N 39°06' W 011°15'1316.1
2016-Jul-07 21:22N 39°19' W 011°12'1716.0
2016-Jul-07 20:19N 39°35' W 011°09'1215.8
2016-Jul-07 19:33N 39°47' W 011°07'1716.0
2016-Jul-07 18:30N 40°04' W 011°04'54715.6
2016-Jul-06 07:25N 48°28' W 006°09'5513.9
2016-Jul-06 03:26N 49°07' W 005°10'1314.9
2016-Jul-06 02:33N 49°14' W 004°53'1816.1
2016-Jul-06 01:27N 49°24' W 004°30'1517.2
2016-Jul-06 00:33N 49°32' W 004°09'1717.4
2016-Jul-05 23:33N 49°40' W 003°46'1616.4
2016-Jul-05 22:33N 49°48' W 003°24'1514.9
2016-Jul-05 21:33N 49°55' W 003°04'1413.5
2016-Jul-05 20:33N 50°01' W 002°45'1312.7
2016-Jul-05 19:31N 50°05' W 002°25'1212.8
2016-Jul-05 18:33N 50°08' W 002°06'1414.3
2016-Jul-05 17:33N 50°12' W 001°45'1616.3
2016-Jul-05 16:33N 50°17' W 001°21'1818.2
2016-Jul-05 15:33N 50°21' W 000°53'1818.0
2016-Jul-05 14:33N 50°26' W 000°26'1716.8
2016-Jul-05 13:33N 50°31' W 000°01'1615.8
2016-Jul-05 12:33N 50°35' E 000°23'3014.1
2016-Jul-05 10:27N 50°51' E 001°03'1314.7
2016-Jul-05 09:33N 50°60' E 001°18'1717.5
2016-Jul-05 08:34N 51°11' E 001°40'1817.7
2016-Jul-05 07:34N 51°26' E 001°55'1616.3
2016-Jul-05 06:33N 51°38' E 002°12'6013.6
2016-Jul-05 02:06N 52°04' E 003°41'611.7
2016-Jul-05 01:34N 52°04' E 003°51'9 8.7
2016-Jul-05 00:33N 51°59' E 004°03'1111.0
2016-Jul-04 23:34N 51°54' E 004°18'1 1.3
2016-Jul-04 22:30N 51°53' E 004°16'0 0.0
2016-Jul-04 21:30N 51°53' E 004°16'0 0.0
2016-Jul-04 20:06N 51°53' E 004°16'0 0.0
2016-Jul-04 19:18N 51°53' E 004°16'0 0.0
2016-Jul-04 18:30N 51°53' E 004°16'0 0.0
2016-Jul-04 16:18N 51°53' E 004°16'0 0.0
2016-Jul-04 15:12N 51°53' E 004°16'0 0.0
2016-Jul-04 14:24N 51°53' E 004°16'0 0.0
2016-Jul-04 13:30N 51°53' E 004°16'0 0.0
2016-Jul-04 12:30N 51°53' E 004°16'0 0.0
2016-Jul-04 11:24N 51°53' E 004°16'0 0.0
2016-Jul-04 10:24N 51°53' E 004°16'0 0.0
2016-Jul-04 09:30N 51°53' E 004°16'0 0.0
2016-Jul-04 08:27N 51°53' E 004°16'0 0.0
2016-Jul-04 07:33N 51°53' E 004°16'0 0.0
2016-Jul-04 06:33N 51°53' E 004°16'0 0.0
2016-Jul-04 04:30N 51°53' E 004°16'0 0.0
2016-Jul-04 03:33N 51°53' E 004°16'0 0.0
2016-Jul-04 02:21N 51°53' E 004°16'0 0.0
2016-Jul-04 01:27N 51°53' E 004°16'0 0.0
2016-Jul-04 00:24N 51°53' E 004°16'0 0.0
2016-Jul-03 23:24N 51°53' E 004°16'0 0.0
2016-Jul-03 22:30N 51°53' E 004°16'0 0.0
2016-Jul-03 21:30N 51°53' E 004°16'0 0.0
2016-Jul-03 20:18N 51°53' E 004°16'0 0.0
2016-Jul-03 19:18N 51°53' E 004°16'0 0.0
2016-Jul-03 18:24N 51°53' E 004°16'0 0.0
2016-Jul-03 17:24N 51°53' E 004°16'0 0.0
2016-Jul-03 16:24N 51°53' E 004°16'0 0.0
2016-Jul-03 15:18N 51°53' E 004°16'0 0.0
2016-Jul-03 13:30N 51°53' E 004°16'0 0.0
2016-Jul-03 12:30N 51°53' E 004°16'0 0.0
2016-Jul-03 11:30N 51°53' E 004°16'0 0.0
2016-Jul-03 10:30N 51°53' E 004°16'0 0.0
2016-Jul-03 09:30N 51°53' E 004°16'0 0.0
2016-Jul-03 08:30N 51°53' E 004°16'0 0.0
2016-Jul-03 07:15N 51°53' E 004°16'0 0.0
2016-Jul-03 06:30N 51°53' E 004°16'0 0.0
2016-Jul-03 03:30N 51°53' E 004°16'0 0.0
2016-Jul-03 02:24N 51°53' E 004°16'0 0.0
2016-Jul-03 01:33N 51°53' E 004°16'0 0.0
2016-Jul-03 00:33N 51°53' E 004°16'0 0.0
2016-Jul-02 23:30N 51°53' E 004°16'0 0.0
2016-Jul-02 22:33N 51°53' E 004°16'0 0.0
2016-Jul-02 21:30N 51°53' E 004°16'0 0.0
2016-Jul-02 20:27N 51°53' E 004°16'0 0.0
2016-Jul-02 19:24N 51°53' E 004°16'0 0.0
2016-Jul-02 18:30N 51°53' E 004°16'0 0.0
2016-Jul-02 17:30N 51°53' E 004°16'0 0.0
2016-Jul-02 16:30N 51°53' E 004°16'0 0.0
2016-Jul-02 15:30N 51°53' E 004°16'0 0.0
2016-Jul-02 14:09N 51°53' E 004°16'0 0.0
2016-Jul-02 13:12N 51°53' E 004°16'0 0.0
2016-Jul-02 12:30N 51°53' E 004°16'0 0.0
2016-Jul-02 11:33N 51°53' E 004°16'0 0.0
2016-Jul-02 10:18N 51°53' E 004°16'0 0.0
2016-Jul-02 09:30N 51°53' E 004°16'0 0.0
2016-Jul-02 08:33N 51°53' E 004°16'0 0.0
2016-Jul-02 07:33N 51°53' E 004°16'0 0.0
2016-Jul-02 06:30N 51°53' E 004°16'0 0.0
2016-Jul-02 04:33N 51°53' E 004°16'0 0.0
2016-Jul-02 03:33N 51°53' E 004°16'0 0.0
2016-Jul-02 02:27N 51°53' E 004°16'0 0.0
2016-Jul-02 01:24N 51°53' E 004°16'0 0.0
2016-Jul-02 00:30N 51°53' E 004°16'0 0.0
2016-Jul-01 23:33N 51°53' E 004°16'0 0.0
2016-Jul-01 22:30N 51°53' E 004°16'0 0.0
2016-Jul-01 21:33N 51°53' E 004°16'0 0.0
2016-Jul-01 20:30N 51°53' E 004°16'0 0.0
2016-Jul-01 19:30N 51°53' E 004°16'0 0.0
2016-Jul-01 18:30N 51°53' E 004°16'0 0.0
2016-Jul-01 17:21N 51°53' E 004°16'0 0.0
2016-Jul-01 16:33N 51°53' E 004°16'0 0.0
2016-Jul-01 15:30N 51°53' E 004°16'0 0.0
2016-Jul-01 14:33N 51°53' E 004°16'0 0.0
2016-Jul-01 13:12N 51°53' E 004°16'0 0.0
2016-Jul-01 12:30N 51°53' E 004°16'0 0.0
2016-Jul-01 11:24N 51°53' E 004°16'0 0.0
2016-Jul-01 10:21N 51°53' E 004°16'0 0.0
2016-Jul-01 09:15N 51°53' E 004°16'0 0.0
2016-Jul-01 08:24N 51°53' E 004°16'0 0.0
2016-Jul-01 07:33N 51°53' E 004°16'0 0.0
2016-Jul-01 06:30N 51°53' E 004°16'0 0.0
2016-Jul-01 05:30N 51°53' E 004°16'0 0.0
2016-Jul-01 04:24N 51°53' E 004°16'0 0.0
2016-Jul-01 03:33N 51°53' E 004°16'0 0.0
2016-Jul-01 02:33N 51°53' E 004°16'0 0.0
2016-Jul-01 01:27N 51°53' E 004°16'0 0.0
2016-Jul-01 00:30N 51°53' E 004°16'0 0.0
2016-Jun-30 23:30N 51°53' E 004°16'0 0.0
2016-Jun-30 22:33N 51°53' E 004°16'0 0.0
2016-Jun-30 21:30N 51°53' E 004°16'0 0.0
2016-Jun-30 19:33N 51°53' E 004°16'0 0.0
2016-Jun-30 18:30N 51°53' E 004°16'0 0.0
2016-Jun-30 16:27N 51°53' E 004°16'0 0.0
2016-Jun-30 15:33N 51°53' E 004°16'0 0.0
2016-Jun-30 14:21N 51°53' E 004°16'0 0.0
2016-Jun-30 13:33N 51°53' E 004°16'0 0.0
2016-Jun-30 12:33N 51°53' E 004°16'0 0.0
2016-Jun-30 11:12N 51°53' E 004°16'0 0.0
2016-Jun-30 10:33N 51°53' E 004°16'0 0.0
2016-Jun-30 09:33N 51°53' E 004°16'0 0.0
2016-Jun-30 08:33N 51°53' E 004°16'0 0.0
2016-Jun-30 07:27N 51°53' E 004°16'0 0.0
2016-Jun-30 06:30N 51°53' E 004°16'0 0.0
2016-Jun-30 05:33N 51°53' E 004°16'0 0.0
2016-Jun-30 04:33N 51°53' E 004°16'0 0.0
2016-Jun-30 03:33N 51°53' E 004°16'0 0.0
2016-Jun-30 02:33N 51°53' E 004°16'0 0.0
2016-Jun-30 01:33N 51°53' E 004°16'0 0.0
2016-Jun-30 00:33N 51°53' E 004°16'0 0.0
2016-Jun-29 23:30N 51°53' E 004°16'  
Track history (hours):
 
Tides and Currents Weather Stations Pressure Air Temp Water Temp Dewpoint Dewpoint Depression Visibility Wind Speed Wind Dir Waves Ship Positions

Bow Heron

Last reported at 2016-Jul-09 23:23 UTC. Time now 2016-Jul-29 05:54 UTC.
Position N 26°38' W 014°48'.
Warning: this ship's position is 19 days out of date.

Length 174 m; draft 6.7 m.

Type: Ship. MMSI: 548779000.

Date/timePositionNaut miles runAvg speedWind from/ knotsBaromVisibWave heightAir tempDewpointWater temp
2016-Jul-09 23:23N 26°38' W 014°48'1416.1
2016-Jul-09 22:32N 26°48' W 014°38'1616.2
2016-Jul-09 21:33N 26°60' W 014°26'2216.1
2016-Jul-09 20:10N 27°16' W 014°08'1516.4
2016-Jul-09 19:16N 27°27' W 013°57'11216.2
2016-Jul-09 12:18N 29°08' W 013°01'1216.1
2016-Jul-09 11:33N 29°19' W 012°56'1815.7
2016-Jul-09 10:24N 29°37' W 012°52'1315.5
2016-Jul-09 09:33N 29°50' W 012°50'11015.4
2016-Jul-09 02:24N 31°39' W 012°32'28916.0
2016-Jul-08 08:18N 36°26' W 011°43'3215.7
2016-Jul-08 06:15N 36°58' W 011°37'2815.9
2016-Jul-08 04:28N 37°26' W 011°32'1516.1
2016-Jul-08 03:33N 37°40' W 011°30'1616.1
2016-Jul-08 02:33N 37°56' W 011°27'1816.1
2016-Jul-08 01:27N 38°14' W 011°26'1715.9
2016-Jul-08 00:21N 38°31' W 011°21'1316.2
2016-Jul-07 23:33N 38°44' W 011°19'2216.1
2016-Jul-07 22:11N 39°06' W 011°15'1316.1
2016-Jul-07 21:22N 39°19' W 011°12'1716.0
2016-Jul-07 20:19N 39°35' W 011°09'1215.8
2016-Jul-07 19:33N 39°47' W 011°07'1716.0
2016-Jul-07 18:30N 40°04' W 011°04'54715.6
2016-Jul-06 07:25N 48°28' W 006°09'5513.9
2016-Jul-06 03:26N 49°07' W 005°10'1314.9
2016-Jul-06 02:33N 49°14' W 004°53'1816.1
2016-Jul-06 01:27N 49°24' W 004°30'1517.2
2016-Jul-06 00:33N 49°32' W 004°09'1717.4
2016-Jul-05 23:33N 49°40' W 003°46'1616.4
2016-Jul-05 22:33N 49°48' W 003°24'1514.9
2016-Jul-05 21:33N 49°55' W 003°04'1413.5
2016-Jul-05 20:33N 50°01' W 002°45'1312.7
2016-Jul-05 19:31N 50°05' W 002°25'1212.8
2016-Jul-05 18:33N 50°08' W 002°06'1414.3
2016-Jul-05 17:33N 50°12' W 001°45'1616.3
2016-Jul-05 16:33N 50°17' W 001°21'1818.2
2016-Jul-05 15:33N 50°21' W 000°53'1818.0
2016-Jul-05 14:33N 50°26' W 000°26'1716.8
2016-Jul-05 13:33N 50°31' W 000°01'1615.8
2016-Jul-05 12:33N 50°35' E 000°23'3014.1
2016-Jul-05 10:27N 50°51' E 001°03'1314.7
2016-Jul-05 09:33N 50°60' E 001°18'1717.5
2016-Jul-05 08:34N 51°11' E 001°40'1817.7
2016-Jul-05 07:34N 51°26' E 001°55'1616.3
2016-Jul-05 06:33N 51°38' E 002°12'6013.6
2016-Jul-05 02:06N 52°04' E 003°41'611.7
2016-Jul-05 01:34N 52°04' E 003°51'9 8.7
2016-Jul-05 00:33N 51°59' E 004°03'1111.0
2016-Jul-04 23:34N 51°54' E 004°18'1 1.3
2016-Jul-04 22:30N 51°53' E 004°16'0 0.0
2016-Jul-04 21:30N 51°53' E 004°16'0 0.0
2016-Jul-04 20:06N 51°53' E 004°16'0 0.0
2016-Jul-04 19:18N 51°53' E 004°16'0 0.0
2016-Jul-04 18:30N 51°53' E 004°16'0 0.0
2016-Jul-04 16:18N 51°53' E 004°16'0 0.0
2016-Jul-04 15:12N 51°53' E 004°16'0 0.0
2016-Jul-04 14:24N 51°53' E 004°16'0 0.0
2016-Jul-04 13:30N 51°53' E 004°16'0 0.0
2016-Jul-04 12:30N 51°53' E 004°16'0 0.0
2016-Jul-04 11:24N 51°53' E 004°16'0 0.0
2016-Jul-04 10:24N 51°53' E 004°16'0 0.0
2016-Jul-04 09:30N 51°53' E 004°16'0 0.0
2016-Jul-04 08:27N 51°53' E 004°16'0 0.0
2016-Jul-04 07:33N 51°53' E 004°16'0 0.0
2016-Jul-04 06:33N 51°53' E 004°16'0 0.0
2016-Jul-04 04:30N 51°53' E 004°16'0 0.0
2016-Jul-04 03:33N 51°53' E 004°16'0 0.0
2016-Jul-04 02:21N 51°53' E 004°16'0 0.0
2016-Jul-04 01:27N 51°53' E 004°16'0 0.0
2016-Jul-04 00:24N 51°53' E 004°16'0 0.0
2016-Jul-03 23:24N 51°53' E 004°16'0 0.0
2016-Jul-03 22:30N 51°53' E 004°16'0 0.0
2016-Jul-03 21:30N 51°53' E 004°16'0 0.0
2016-Jul-03 20:18N 51°53' E 004°16'0 0.0
2016-Jul-03 19:18N 51°53' E 004°16'0 0.0
2016-Jul-03 18:24N 51°53' E 004°16'0 0.0
2016-Jul-03 17:24N 51°53' E 004°16'0 0.0
2016-Jul-03 16:24N 51°53' E 004°16'0 0.0
2016-Jul-03 15:18N 51°53' E 004°16'0 0.0
2016-Jul-03 13:30N 51°53' E 004°16'0 0.0
2016-Jul-03 12:30N 51°53' E 004°16'0 0.0
2016-Jul-03 11:30N 51°53' E 004°16'0 0.0
2016-Jul-03 10:30N 51°53' E 004°16'0 0.0
2016-Jul-03 09:30N 51°53' E 004°16'0 0.0
2016-Jul-03 08:30N 51°53' E 004°16'0 0.0
2016-Jul-03 07:15N 51°53' E 004°16'0 0.0
2016-Jul-03 06:30N 51°53' E 004°16'0 0.0
2016-Jul-03 03:30N 51°53' E 004°16'0 0.0
2016-Jul-03 02:24N 51°53' E 004°16'0 0.0
2016-Jul-03 01:33N 51°53' E 004°16'0 0.0
2016-Jul-03 00:33N 51°53' E 004°16'0 0.0
2016-Jul-02 23:30N 51°53' E 004°16'0 0.0
2016-Jul-02 22:33N 51°53' E 004°16'0 0.0
2016-Jul-02 21:30N 51°53' E 004°16'0 0.0
2016-Jul-02 20:27N 51°53' E 004°16'0 0.0
2016-Jul-02 19:24N 51°53' E 004°16'0 0.0
2016-Jul-02 18:30N 51°53' E 004°16'0 0.0
2016-Jul-02 17:30N 51°53' E 004°16'0 0.0
2016-Jul-02 16:30N 51°53' E 004°16'0 0.0
2016-Jul-02 15:30N 51°53' E 004°16'0 0.0
2016-Jul-02 14:09N 51°53' E 004°16'0 0.0
2016-Jul-02 13:12N 51°53' E 004°16'0 0.0
2016-Jul-02 12:30N 51°53' E 004°16'0 0.0
2016-Jul-02 11:33N 51°53' E 004°16'0 0.0
2016-Jul-02 10:18N 51°53' E 004°16'0 0.0
2016-Jul-02 09:30N 51°53' E 004°16'0 0.0
2016-Jul-02 08:33N 51°53' E 004°16'0 0.0
2016-Jul-02 07:33N 51°53' E 004°16'0 0.0
2016-Jul-02 06:30N 51°53' E 004°16'0 0.0
2016-Jul-02 04:33N 51°53' E 004°16'0 0.0
2016-Jul-02 03:33N 51°53' E 004°16'0 0.0
2016-Jul-02 02:27N 51°53' E 004°16'0 0.0
2016-Jul-02 01:24N 51°53' E 004°16'0 0.0
2016-Jul-02 00:30N 51°53' E 004°16'0 0.0
2016-Jul-01 23:33N 51°53' E 004°16'0 0.0
2016-Jul-01 22:30N 51°53' E 004°16'0 0.0
2016-Jul-01 21:33N 51°53' E 004°16'0 0.0
2016-Jul-01 20:30N 51°53' E 004°16'0 0.0
2016-Jul-01 19:30N 51°53' E 004°16'0 0.0
2016-Jul-01 18:30N 51°53' E 004°16'0 0.0
2016-Jul-01 17:21N 51°53' E 004°16'0 0.0
2016-Jul-01 16:33N 51°53' E 004°16'0 0.0
2016-Jul-01 15:30N 51°53' E 004°16'0 0.0
2016-Jul-01 14:33N 51°53' E 004°16'0 0.0
2016-Jul-01 13:12N 51°53' E 004°16'0 0.0
2016-Jul-01 12:30N 51°53' E 004°16'0 0.0
2016-Jul-01 11:24N 51°53' E 004°16'0 0.0
2016-Jul-01 10:21N 51°53' E 004°16'0 0.0
2016-Jul-01 09:15N 51°53' E 004°16'0 0.0
2016-Jul-01 08:24N 51°53' E 004°16'0 0.0
2016-Jul-01 07:33N 51°53' E 004°16'0 0.0
2016-Jul-01 06:30N 51°53' E 004°16'0 0.0
2016-Jul-01 05:30N 51°53' E 004°16'0 0.0
2016-Jul-01 04:24N 51°53' E 004°16'0 0.0
2016-Jul-01 03:33N 51°53' E 004°16'0 0.0
2016-Jul-01 02:33N 51°53' E 004°16'0 0.0
2016-Jul-01 01:27N 51°53' E 004°16'0 0.0
2016-Jul-01 00:30N 51°53' E 004°16'0 0.0
2016-Jun-30 23:30N 51°53' E 004°16'0 0.0
2016-Jun-30 22:33N 51°53' E 004°16'0 0.0
2016-Jun-30 21:30N 51°53' E 004°16'0 0.0
2016-Jun-30 19:33N 51°53' E 004°16'0 0.0
2016-Jun-30 18:30N 51°53' E 004°16'0 0.0
2016-Jun-30 16:27N 51°53' E 004°16'0 0.0
2016-Jun-30 15:33N 51°53' E 004°16'0 0.0
2016-Jun-30 14:21N 51°53' E 004°16'0 0.0
2016-Jun-30 13:33N 51°53' E 004°16'0 0.0
2016-Jun-30 12:33N 51°53' E 004°16'0 0.0
2016-Jun-30 11:12N 51°53' E 004°16'0 0.0
2016-Jun-30 10:33N 51°53' E 004°16'0 0.0
2016-Jun-30 09:33N 51°53' E 004°16'0 0.0
2016-Jun-30 08:33N 51°53' E 004°16'0 0.0
2016-Jun-30 07:27N 51°53' E 004°16'0 0.0
2016-Jun-30 06:30N 51°53' E 004°16'0 0.0
2016-Jun-30 05:33N 51°53' E 004°16'0 0.0
2016-Jun-30 04:33N 51°53' E 004°16'0 0.0
2016-Jun-30 03:33N 51°53' E 004°16'0 0.0
2016-Jun-30 02:33N 51°53' E 004°16'0 0.0
2016-Jun-30 01:33N 51°53' E 004°16'0 0.0
2016-Jun-30 00:33N 51°53' E 004°16'0 0.0
2016-Jun-29 23:30N 51°53' E 004°16'  

Dump ship's entire track history